x

Nanakwa Shoal (46181) Wave Buoy

4:00pm - Wed 20th Aug 2014 All times are PDT. -7 hours from GMT.

  • Sig Wave height 0.3ft
  • Peak Period 2s
  • Wind
    13mph, 16mph gusts
  • Sea Temp 67°f
  • Air Temp 67°f
  • Sea Pressure 1012.5mb
  • Nanakwa Shoal
  • Nanakwa Shoal

More Historic Weather Station data

Upgrade to MSW Pro to gain access to the past 30 days of data for over 8000 Wavebouys and Weather Stations around the globe.

Join Pro

Comparision Forecast

View Surf forecast
   
Wed 08/20 4:00pm 0.3ft 2s 13 16 mph 1012.5mb 67f 67f
3:00pm  -  2s 11 13 mph 1012.8mb 68f 66f
2:00pm  -  2s 4
mph
1013.2mb 67f 65f
1:00pm 0.3ft 2s 2
mph
1013.5mb 67f 65f
12:00pm 0.3ft 2s 2
mph
1013.5mb 66f 63f
11:00am 0.3ft 2s 9
mph
1013.6mb 65f 61f
10:00am 0.7ft 2s 11 16 mph 1013.6mb 64f 59f
9:00am 0.3ft 2s 13 16 mph 1013.8mb 64f 58f
8:00am 0.3ft 2s 16 18 mph 1013.8mb 64f 57f
7:00am 0.3ft 2s 11 13 mph 1013.9mb 64f 56f
6:00am 0.3ft 2s 11 13 mph 1013.6mb 63f 56f
5:00am 0.3ft 2s 13 16 mph 1013.3mb 63f 57f
4:00am 0.3ft 2s 9 11 mph 1013.3mb 63f 57f
3:00am 0.3ft 2s 9 11 mph 1013.1mb 63f 58f
2:00am  -  2s 9 11 mph 1012.6mb 63f 60f
1:00am 0.3ft 2s 2 4 mph 1012.4mb 63f 60f
12:00am 0.3ft 2s 2 4 mph 1011.9mb 64f 61f
Tue 08/19 11:00pm 0.3ft 2s 7 11 mph 1011.5mb 64f 62f
10:00pm 0.3ft 2s 7 11 mph 1011.1mb 64f 64f
9:00pm 0.3ft 2s 13 16 mph 1010.5mb 65f 66f
8:00pm 0.3ft 2s 13 16 mph 1010.4mb 65f 67f
7:00pm 0.7ft 2s 13 16 mph 1010.5mb 65f 67f
6:00pm 0.7ft 2s 16 18 mph 1010.7mb 65f 67f
5:00pm 0.3ft 2s 13 16 mph 1011.1mb 65f 66f
4:00pm 0.3ft 2s 11 13 mph 1011.6mb 65f 65f
3:00pm 0.3ft 2s 9
mph
1012mb 65f 63f
2:00pm  -  2s 9 11 mph 1012.4mb 65f 63f
1:00pm  -  2s 7 9 mph 1012.7mb 64f 61f
12:00pm  -  2s 4 7 mph 1013.3mb 64f 60f
11:00am  -  2s 4 7 mph 1013.7mb 63f 59f
10:00am 0.3ft 2s 4 7 mph 1013.9mb 62f 58f
9:00am 0.3ft 2s 7 9 mph 1013.9mb 62f 57f
8:00am 0.3ft 3s 7 9 mph 1014mb 62f 57f
7:00am  -  2s 9
mph
1013.9mb 62f 56f
6:00am  -  2s 4 7 mph 1014mb 62f 57f
5:00am  -  2s 2 7 mph 1014.1mb 62f 57f
4:00am  -  2s 7
mph
1014.3mb 62f 57f
3:00am 0.3ft 2s 4
mph
1014.4mb 62f 57f
2:00am 0.3ft 2s 4 7 mph 1014.3mb 63f 58f
1:00am 0.3ft 2s 4 7 mph 1014.2mb 62f 58f
12:00am 0.3ft 2s 7 9 mph 1014mb 63f 60f
Mon 08/18 11:00pm 0.3ft 2s 9 13 mph 1014mb 63f 60f
10:00pm 0.3ft 2s 4 11 mph 1014mb 63f 60f
9:00pm 0.7ft 2s 11 13 mph 1014mb 63f 62f
8:00pm 0.7ft 2s 11 13 mph 1014.1mb 63f 62f
7:00pm 0.3ft 2s 13 16 mph 1014.2mb 63f 62f
6:00pm 0.7ft 2s 11 13 mph 1014.5mb 63f 63f
5:00pm 0.7ft 2s 13 16 mph 1014.8mb 63f 62f
4:00pm 0.7ft 2s 13 16 mph 1015.3mb 64f 62f
3:00pm 0.7ft 2s 16 18 mph 1015.4mb 64f 62f
2:00pm 0.7ft 2s 13 16 mph 1015.7mb 64f 62f
1:00pm 0.7ft 2s 13 18 mph 1015.9mb 64f 61f
12:00pm 0.7ft 2s 13 16 mph 1016mb 64f 60f
11:00am 0.3ft 2s 16 20 mph 1016.2mb 64f 61f
10:00am 0.3ft 2s 11 13 mph 1016.7mb 65f 61f
9:00am 0.3ft 2s 13 16 mph 1017mb 64f 60f
8:00am 0.7ft 2s 13 18 mph 1017.4mb 63f 60f
7:00am 0.3ft 2s 13 16 mph 1017.5mb 63f 60f
6:00am 0.3ft 2s 13 18 mph 1017.7mb 64f 60f
5:00am 0.3ft 2s 13 16 mph 1018.2mb 64f 61f
4:00am 0.3ft 2s 11 13 mph 1018.7mb 64f 60f
3:00am 0.7ft 2s 11 13 mph 1019mb 64f 61f
2:00am 0.3ft 2s 16 20 mph 1018.9mb 63f 64f
1:00am 0.3ft 2s 11 13 mph 1019.2mb 63f 65f
12:00am 0.3ft 2s 13 18 mph 1019.6mb 64f 65f
Sun 08/17 11:00pm 0.7ft 2s 13 16 mph 1019.8mb 64f 65f
10:00pm 0.7ft 2s 13 16 mph 1019.9mb 64f 67f
9:00pm 0.3ft 2s 11 16 mph 1019.9mb 64f 68f
8:00pm 0.3ft 2s 13 18 mph 1019.6mb 64f 67f
7:00pm 0.3ft 2s 11 16 mph 1019.6mb 64f 69f
6:00pm 0.3ft 2s 9
mph
1019.9mb 64f 68f
5:00pm 0.7ft 2s 13 16 mph 1020.6mb 64f 68f
4:00pm 0.7ft 2s 13 20 mph 1021.1mb 65f 69f
3:00pm 0.7ft 2s 16 18 mph 1021mb 65f 68f
2:00pm 0.3ft 2s 16 18 mph 1021.2mb 65f 67f
1:00pm 0.3ft 3s 13 16 mph 1021.6mb 66f 65f
12:00pm  -  2s 9
mph
1022.2mb 65f 64f
11:00am  -  2s 7
mph
1022.5mb 64f 62f
10:00am 0.3ft 2s 4 7 mph 1022.3mb 65f 61f
9:00am  -  2s 7 9 mph 1022.2mb 64f 61f
8:00am  -  2s 9
mph
1021.9mb 64f 60f
7:00am  -  2s 9
mph
1021.7mb 63f 60f
6:00am  -  2s 7 9 mph 1021.4mb 63f 60f
5:00am  -  2s 7 9 mph 1021.5mb 64f 60f
4:00am 0.3ft 2s 7 9 mph 1021.4mb 63f 61f
3:00am 0.3ft 2s 9 11 mph 1021.3mb 63f 62f
1:00am 0.3ft 2s 9 11 mph 1021.1mb 62f 63f